• Join FlightAware (Why Join?)
  • Login
  • US Flag 
07:56PM EDT


 

Airport Tracker/Info


-or-


 

Live Flight TrackerFlight Track Log ✈ DAL6140 ✈ 23-Apr-2013 ✈ KLGA - CYUL

Flight Track Log - Related Links

Times and Time Zones

All times are in EDT time to prevent confusion due to time zone crossing. See the DAL6140 flight status page for this flight to view local times or setup timezone preferences in your user account.

Time Position Orientation Groundspeed Altitude Reporting Facility
EDT Latitude Longitude Course Direction KTS MPH feet Rate Location/Type
04:35PM 40.7333 -73.8167 37° Northeast 211 243 2,400  Level New York TRACON
04:36PM 40.7833 -73.7833 27° Northeast 218 251 5,000 1,920 Climbing New York TRACON
04:37PM 41.1276 -73.5874 28° Northeast  Level FlightAware Approximate
04:38PM 41.2155 -73.5115 33° Northeast  Level FlightAware Approximate
04:38PM 40.8989 -73.7086 26° Northeast 253 291 8,500  Level Boston Center
04:39PM 41.3057 -73.4407 27° Northeast  Level FlightAware Approximate
04:39PM 40.9353 -73.6297 59° Northeast 240 276 9,000  Level Boston Center
04:40PM 41.3898 -73.3769 37° Northeast  Level FlightAware Approximate
04:40PM 40.9858 -73.5675 43° Northeast 240 276 9,500  Level Boston Center
04:41PM 41.0736 -73.5469 10° North 260 299 10,200 1,140 Climbing Boston Center
04:42PM 41.1653 -73.5594 354° North 320 368 11,800 1,560 Climbing Boston Center
04:43PM 41.2514 -73.4975 28° Northeast 331 381 13,400 1,500 Climbing Boston Center
04:44PM 41.3353 -73.4297 31° Northeast 348 400 14,900 1,440 Climbing Boston Center
04:45PM 41.4233 -73.3592 31° Northeast 364 419 16,300 1,200 Climbing Boston Center
04:46PM 41.5069 -73.3353 12° North 364 419 17,400 1,200 Climbing Boston Center
04:47PM 41.6300 -73.3400 358° North 359 413 18,800 1,200 Climbing Boston Center
04:48PM 41.7381 -73.3497 356° North 366 421 19,800 960 Climbing Boston Center
04:49PM 41.8486 -73.3597 356° North 381 438 20,800 1,020 Climbing Boston Center
04:50PM 41.9611 -73.3642 358° North 396 456 21,900 900 Climbing Boston Center
04:51PM 42.0547 -73.3683 358° North 406 467 22,700 840 Climbing Boston Center
04:52PM 42.1861 -73.3731 358° North 420 483 23,600 780 Climbing Boston Center
04:53PM 42.3069 -73.3806 357° North 426 490 24,300 180 Climbing Boston Center
04:54PM 42.4444 -73.3911 357° North 431 496 24,000 -240 Descending Boston Center
04:56PM 42.7006 -73.4064 357° North 456 525 23,600 -420 Descending Boston Center
04:57PM 42.8214 -73.4139 357° North 456 525 22,900 -360 Descending Boston Center
04:58PM 42.9256 -73.4183 358° North 440 506 22,900  Level Boston Center
04:59PM 43.0442 -73.4258 357° North 428 493 23,000  Climbing Boston Center
05:00PM 43.1756 -73.4308 358° North 423 487 23,000  Level Boston Center
05:01PM 43.2983 -73.4414 356° North 423 487 23,000  Level Boston Center
05:02PM 43.4192 -73.4461 358° North 423 487 23,000  Level Boston Center
05:03PM 43.5381 -73.4539 357° North 423 487 23,000  Level Boston Center
05:04PM 43.6567 -73.4589 358° North 423 487 23,000  Level Boston Center
05:05PM 43.7756 -73.4667 357° North 417 480 23,000  Level Boston Center
05:06PM 43.8942 -73.4744 357° North 417 480 23,000  Level Boston Center
05:07PM 44.0108 -73.4822 357° North 417 480 23,000  Level Boston Center
05:08PM 44.1294 -73.4872 358° North 423 487 23,000  Level Boston Center
05:09PM 44.2461 -73.4950 357° North 423 487 23,000  Level Boston Center
05:10PM 44.3628 -73.5028 357° North 418 481 23,000 -60 Level Boston Center
05:11PM 44.4814 -73.5108 357° North 418 481 22,900 -1,200 Descending Boston Center
05:12PM 44.5958 -73.5186 357° North 418 481 20,700 -2,340 Descending Boston Center
05:13PM 44.7083 -73.5294 356° North 418 481 18,300 -2,220 Descending Boston Center
05:14PM 44.8206 -73.5375 357° North 413 475 16,300 -2,220 Descending Boston Center
05:15PM 44.9308 -73.5511 355° North 402 463 13,900 -2,460 Descending Boston Center
05:16PM 45.0000 -73.5500 North 390 449 12,100 -2,100 Descending Montreal Center
05:17PM 45.1000 -73.5500 360° North 360 414 10,300 -1,380 Descending Montreal Center
05:18PM 45.2000 -73.5667 353° North 300 345 9,400 -900 Descending Montreal Center
05:19PM 45.2667 -73.5667 360° North 270 311 8,600 -900 Descending Montreal Center
05:20PM 45.3500 -73.5833 352° North 270 311 7,700 -900 Descending Montreal Center
05:21PM 45.4167 -73.5500 19° North 270 311 6,900 -1,200 Descending Montreal Center
05:22PM 45.4833 -73.5333 10° North 260 299 5,300 -1,500 Descending Montreal Center
05:23PM 45.5500 -73.5333 360° North 240 276 3,900 -1,260 Descending Montreal Center
05:24PM 45.5500 -73.6167 270° West 200 230 2,800 -1,260 Descending Montreal Center
05:25PM 45.5167 -73.6667 226° Southwest 140 161 1,400 -1,020 Descending Montreal Center
05:26PM 45.5000 -73.7000 235° Southwest 140 161 800 -660 Descending Montreal Center
05:27PM 45.4667 -73.7167 199° South 130 150 100 -360 Descending Montreal Center
05:28PM 45.4500 -73.7500 235° Southwest 40 46 100  Level Montreal Center
05:29PM 45.4500 -73.7500 235° Southwest 20 23 100  Level Montreal Center